Deal Park, New Jersey
Current Conditions -  °F | °C
As of 7:55 PM on Wednesday 17 Dec 2014 (Local Time) from KBLM Reporting Station
Clear Clear  
Wind Chill: 38°   Ceiling: Unl
Heat Index: 43°   Visibility: 10mi
Dew Point: 27°   Wind: 8mph
Humidity: 53%   Direction: 270°W
Pressure: 29.92"   Gusts: NA
Location:  40.2504°N, 74.0014°W
Report Text: KBLM 180055Z AUTO 27007KT 10SM CLR 06/M03 A2992 RMK AO1
Loading
Personal Weather Stations






























Interactive Weather Map New forecast layout! Learn more

10-Day Weather Forecast

Advertisements
Track Severe Weather on mobile